Terminal Aerodrome Forecast
Issued by NWS Lake Charles, LA

Home | Current Version | Previous Version | Text Only | Print | Product List | Glossary On
Versions: 1 2 3 4 5 6 7 8 9 10 11 12 13 14 15 16 17 18 19 20 21
000
FTUS44 KLCH 011348 AAB
TAFLFT
TAF AMD
KLFT 011348Z 0114/0212 04015G23KT 6SM -TSRA SCT008 OVC025CB
      TEMPO 0114/0118 VRB20G30KT 1SM +TSRA OVC007CB
     FM011800 15010KT P6SM VCTS SCT020CB BKN035
      TEMPO 0118/0122 2SM TSRA OVC015CB
     FM020100 14006KT P6SM VCSH BKN015 PROB30 0206/0212 2SM SHRA
      BKN007=

USA.gov is the U.S. government's official web portal to all federal, state and local government web resources and services.